Nearby METAR Reports

 

KRDU - Raleigh/Durham, North Carolina, USA
Distance from station: NNW 20mi, 33km
Updated: Tue, 18-Jun-2019 3:51am EDT
Mostly cloudy
Mostly cloudy
 Wind from WSW
Wind: WSW 5 mph , 7 km/h
Temperature: 73°F , 23°C
Dew Point: 70°F , 21°C
Humidity: 89%
Barometer: 30.03 inHg , 1016.9 hPa
Clouds: Mostly cloudy
Visibility: 10 miles , 16 km
Cloud details: Few Clouds 3000 ft
Mostly cloudy 23000 ft
2019/06/18 07:51 KRDU 180751Z 25004KT 10SM FEW030 BKN230 23/21 A3003 RMK AO2 SLP163 T02330211
KJNX - Smithfield Johns, North Carolina, USA
Distance from station: ESE 17mi, 28km
Updated: Tue, 18-Jun-2019 3:40am EDT
Clear
Clear
 Wind from calm
Wind: Calm
Temperature: 73°F , 23°C
Dew Point: 73°F , 23°C
Humidity: 100%
Barometer: 30.03 inHg , 1016.9 hPa
Clouds: Clear
Visibility: 10 miles , 16 km
2019/06/18 07:40 KJNX 180740Z AUTO 00000KT 10SM CLR 23/23 A3003 RMK AO2 LTG DSNT SE
 
KLHZ - Louisburg/Frankl, North Carolina, USA
Distance from station: NE 33mi, 54km
Updated: Tue, 18-Jun-2019 3:40am EDT
Clear
Clear
 Wind from SSW
Wind: SSW 5 mph , 7 km/h
Temperature: 72°F , 22°C
Dew Point: 70°F , 21°C
Humidity: 94%
Barometer: 30.05 inHg , 1017.6 hPa
Clouds: Clear
Visibility: 10 miles , 16 km
2019/06/18 07:40 KLHZ 180740Z AUTO 21004KT 10SM CLR 22/21 A3005 RMK AO2
KPOB - Pope Afb, North Carolina, USA
Distance from station: SSW 37mi, 59km
Updated: Tue, 18-Jun-2019 3:56am EDT
Clear
Clear
 Wind from W
Wind: W 8 mph , 13 km/h
Temperature: 75°F , 24°C
Dew Point: 70°F , 21°C
Humidity: 83%
Barometer: 30.03 inHg , 1016.9 hPa
Clouds: Clear
Visibility: 10 miles , 16 km
2019/06/18 07:56 KPOB 180756Z AUTO 26007KT 10SM CLR 24/21 A3003 RMK AO2 SLP170 T02430214 $
 
KFBG - Fort Bragg/Simmo, North Carolina, USA
Distance from station: SSW 37mi, 60km
Updated: Tue, 18-Jun-2019 3:56am EDT
Clear
Clear
 Wind from SW
Wind: SW 6 mph , 9 km/h
Temperature: 77°F , 25°C
Dew Point: 73°F , 23°C
Humidity: 89%
Barometer: 30.02 inHg , 1016.6 hPa
Clouds: Clear
Visibility: 10 miles , 16 km
2019/06/18 07:56 KFBG 180756Z AUTO 22005KT 10SM CLR 25/23 A3002 RMK AO2 SLP166 T02450225 $
KSCR - Siler City, North Carolina, USA
Distance from station: W 47mi, 75km
Updated: Tue, 18-Jun-2019 3:55am EDT
Overcast
Overcast
 Wind from W
Wind: W 3 mph , 6 km/h
Temperature: 73°F , 23°C
Dew Point: 68°F , 20°C
Humidity: 83%
Barometer: 30.06 inHg , 1017.9 hPa
Clouds: Overcast
Visibility: 10 miles , 16 km
Cloud details: Overcast 2700 ft
2019/06/18 07:55 KSCR 180755Z AUTO 26003KT 10SM OVC027 23/20 A3006 RMK AO2 T02260200
 
KTDF - Roxboro Person, North Carolina, USA
Distance from station: NNW 49mi, 79km
Updated: Tue, 18-Jun-2019 3:40am EDT
Mostly cloudy
Mostly cloudy
 Wind from WSW
Wind: WSW 7 mph , 11 km/h
Temperature: 72°F , 22°C
Dew Point: 66°F , 19°C
Humidity: 83%
Barometer: 30.05 inHg , 1017.6 hPa
Clouds: Mostly cloudy
Visibility: 10 miles , 16 km
Cloud details: Mostly cloudy 3500 ft
Mostly cloudy 4200 ft
2019/06/18 07:40 KTDF 180740Z AUTO 24006KT 10SM BKN035 BKN042 22/19 A3005 RMK AO2
KSOP - Southern Pines, North Carolina, USA
Distance from station: SW 50mi, 80km
Updated: Tue, 18-Jun-2019 3:56am EDT
Clear
Clear
 Wind from WSW
Wind: WSW 6 mph , 9 km/h
Temperature: 75°F , 24°C
Dew Point: 72°F , 22°C
Humidity: 89%
Barometer: 30.06 inHg , 1017.9 hPa
Clouds: Clear
Visibility: 10 miles , 16 km
2019/06/18 07:56 KSOP 180756Z AUTO 25005KT 10SM CLR 24/22 A3006 RMK AO2 SLP186 T02390222 PWINO $
 
KHNZ - Henderson/Oxford, North Carolina, USA
Distance from station: N 52mi, 84km
Updated: Tue, 18-Jun-2019 3:40am EDT
Clear
Clear
 Wind from calm
Wind: Calm
Temperature: 70°F , 21°C
Dew Point: 66°F , 19°C
Humidity: 88%
Barometer: 30.02 inHg , 1016.6 hPa
Clouds: Clear
Visibility: 10 miles , 16 km
2019/06/18 07:40 KHNZ 180740Z AUTO 00000KT 10SM CLR 21/19 A3002 RMK AO2 T02050188
KBUY - Burlington, North Carolina, USA
Distance from station: NW 54mi, 86km
Updated: Tue, 18-Jun-2019 3:54am EDT
Light rain, Few clouds
Light rain, Few clouds
 Wind from WSW
Wind: WSW 8 mph , 13 km/h
Temperature: 73°F , 23°C
Dew Point: 64°F , 18°C
Humidity: 74%
Barometer: 30.03 inHg , 1016.9 hPa
Summary: Light rain
Clouds: Few Clouds
Visibility: 10 miles , 16 km
Cloud details: Few Clouds 10000 ft
2019/06/18 07:54 KBUY 180754Z AUTO 25007KT 10SM -RA FEW100 23/18 A3003 RMK AO2 LTG DSNT SW AND W RAB36 SLP160 P0000 T02330183
 
KTNB - Boone Watauga Ct, North Carolina, USA
Distance from station: SE 2mi, 3km
Updated: Tue, 18-Jun-2019 3:55am EDT
Mostly cloudy
Mostly cloudy
 Wind from calm
Wind: Calm
Temperature: 63°F , 17°C
Dew Point: 63°F , 17°C
Humidity: 100%
Barometer: 30.15 inHg , 1021 hPa
Clouds: Mostly cloudy
Visibility: 10 miles , 16 km
Cloud details: Mostly cloudy 7500 ft
Mostly cloudy 10000 ft
2019/06/18 07:55 KTNB 180755Z AUTO 00000KT 10SM BKN075 BKN100 17/17 A3015 RMK AO2 T01660166 402760162
KGEV - Jefferson, North Carolina, USA
Distance from station: NE 21mi, 33km
Updated: Tue, 18-Jun-2019 3:45am EDT
Mist, Overcast
Mist, Overcast
 Wind from calm
Wind: Calm
Temperature: 61°F , 16°C
Dew Point: 61°F , 16°C
Humidity: 100%
Barometer: 30.15 inHg , 1021 hPa
Summary: Mist
Clouds: Overcast
Visibility: 3/4 mile , 1.2 km
Cloud details: Overcast 100 ft
2019/06/18 07:45 KGEV 180745Z AUTO 00000KT 3/4SM BR OVC001 16/16 A3015 RMK AO2 T01620162
 
KFQD - Rutherfordton, North Carolina, USA
Distance from station: SSW 57mi, 92km
Updated: Tue, 18-Jun-2019 3:40am EDT
Light rain, Partly cloudy
Light rain, Partly cloudy
 Wind from calm
Wind: Calm
Temperature: 64°F , 18°C
Dew Point: 64°F , 18°C
Humidity: 100%
Barometer: 30.07 inHg , 1018.3 hPa
Summary: Light rain
Clouds: Partly cloudy
Visibility: 10 miles , 16 km
Cloud details: Partly cloudy 1000 ft
Partly cloudy 3000 ft
Partly cloudy 5000 ft
2019/06/18 07:40 KFQD 180740Z AUTO 00000KT 10SM -RA SCT010 SCT030 SCT050 18/18 A3007 RMK AO2 LTG DSNT W
KAVL - Asheville, North Carolina, USA
Distance from station: SW 72mi, 117km
Updated: Tue, 18-Jun-2019 4:01am EDT
Light rain, Mostly cloudy
Light rain, Mostly cloudy
 Wind from calm
Wind: Calm
Temperature: 66°F , 19°C
Dew Point: 64°F , 18°C
Humidity: 94%
Barometer: 30.10 inHg , 1019.3 hPa
Summary: Light rain
Clouds: Mostly cloudy
Visibility: 10 miles , 16 km
Cloud details: Partly cloudy 400 ft
Partly cloudy 2800 ft
Mostly cloudy 11000 ft
2019/06/18 08:01 KAVL 180801Z AUTO 00000KT 10SM -RA SCT004 SCT028 BKN110 19/18 A3010 RMK AO2 P0000 T01940178